Time;durP1;ratioP1;P1;durP2;ratioP2;P2;SDS_P1;SDS_P2;PMS_P1;PMS_P2;Temp;Humidity;BMP_temperature;BMP_pressure;BME280_temperature;BME280_humidity;BME280_pressure;Samples;Min_cycle;Max_cycle;Signal;HPM_P1;HPM_P2
2022/06/11 00:00:21;;;;;;;;;;;;;;;25.46;43.91;98878.88;2047411;28;19937;-50
2022/06/11 00:01:24;;;;;;;;;;;;;;;25.46;44.40;98878.88;2055169;28;20398;-52
2022/06/11 00:02:25;;;;;;;;;;;;;;;25.47;44.06;98879.72;2053522;28;19933;-51
2022/06/11 00:03:26;;;;;;;;;;;;;;;25.46;43.99;98881.59;2054788;28;19940;-53
2022/06/11 00:04:30;;;;;;;;;;;;;;;25.46;44.02;98878.88;2058044;28;19926;-50
2022/06/11 00:05:31;;;;;;;;;;;;;;;25.46;43.85;98881.59;2056672;28;20020;-52
2022/06/11 00:06:34;;;;;;;;;;;;;;;25.45;44.15;98881.84;2057657;28;20864;-53
2022/06/11 00:07:36;;;;;;;;;;;;;;;25.45;43.91;98874.53;2061702;28;19952;-50
2022/06/11 00:08:38;;;;;;;;;;;;;;;25.46;44.10;98878.88;2056866;28;20303;-50
2022/06/11 00:09:40;;;;;;;;;;;;;;;25.46;44.20;98884.31;2056546;28;19949;-52
2022/06/11 00:10:40;;;;;;;;;;;;;;;25.46;44.18;98878.06;2058988;28;19941;-52
2022/06/11 00:11:43;;;;;;;;;;;;;;;25.46;44.30;98876.16;2056408;28;20127;-50
2022/06/11 00:12:43;;;;;;;;;;;;;;;25.47;44.16;98875.13;2057037;28;19933;-51
2022/06/11 00:13:45;;;;;;;;;;;;;;;25.49;44.54;98877.56;2056267;28;20519;-53
2022/06/11 00:14:46;;;;;;;;;;;;;;;25.48;44.51;98874.03;2056720;28;19933;-51
2022/06/11 00:15:48;;;;;;;;;;;;;;;25.47;44.12;98869.69;2060000;28;20373;-52
2022/06/11 00:16:48;;;;;;;;;;;;;;;25.46;44.04;98870.72;2056973;28;19931;-53
2022/06/11 00:17:52;;;;;;;;;;;;;;;25.46;43.71;98869.91;2050641;28;19937;-50
2022/06/11 00:18:54;;;;;;;;;;;;;;;25.47;44.21;98875.13;2048826;28;19988;-52
2022/06/11 00:19:58;;;;;;;;;;;;;;;25.45;44.32;98877.25;2049645;28;19930;-51
2022/06/11 00:20:58;;;;;;;;;;;;;;;25.46;44.50;98875.34;2050188;28;19967;-53
2022/06/11 00:22:00;;;;;;;;;;;;;;;25.46;44.47;98873.44;2051754;28;20307;-49
2022/06/11 00:23:01;;;;;;;;;;;;;;;25.46;43.99;98868.00;2048772;28;19934;-50
2022/06/11 00:24:02;;;;;;;;;;;;;;;25.46;44.30;98868.00;2048593;28;20380;-52
2022/06/11 00:25:03;;;;;;;;;;;;;;;25.46;44.14;98865.28;2048360;28;19926;-52
2022/06/11 00:26:05;;;;;;;;;;;;;;;25.44;44.09;98874.78;2046423;28;19930;-50
2022/06/11 00:27:06;;;;;;;;;;;;;;;25.43;44.63;98868.50;2047974;28;19926;-51
2022/06/11 00:28:08;;;;;;;;;;;;;;;25.40;44.41;98867.09;2048682;28;19935;-53
2022/06/11 00:29:09;;;;;;;;;;;;;;;25.40;43.78;98863.56;2048084;28;19930;-50
2022/06/11 00:30:11;;;;;;;;;;;;;;;25.39;44.24;98865.47;2048217;28;20602;-52
2022/06/11 00:31:12;;;;;;;;;;;;;;;25.39;43.79;98868.16;2047521;28;19927;-54
2022/06/11 00:32:14;;;;;;;;;;;;;;;25.38;44.85;98865.69;2048352;28;19934;-55
2022/06/11 00:33:17;;;;;;;;;;;;;;;25.38;44.85;98862.97;2046964;28;20913;-53
2022/06/11 00:34:19;;;;;;;;;;;;;;;25.37;44.37;98866.75;2047594;28;20284;-49
2022/06/11 00:35:22;;;;;;;;;;;;;;;25.37;44.22;98861.34;2047788;28;20028;-53
2022/06/11 00:36:23;;;;;;;;;;;;;;;25.37;44.36;98864.03;2049423;28;19978;-53
2022/06/11 00:37:24;;;;;;;;;;;;;;;25.38;43.60;98866.53;2050055;28;19937;-55
2022/06/11 00:38:26;;;;;;;;;;;;;;;25.36;44.16;98865.13;2051894;28;19936;-54
2022/06/11 00:39:27;;;;;;;;;;;;;;;25.36;44.75;98862.41;2047871;28;20513;-51
2022/06/11 00:40:30;;;;;;;;;;;;;;;25.37;44.35;98866.75;2046250;28;19926;-53
2022/06/11 00:41:32;;;;;;;;;;;;;;;25.37;44.51;98864.03;2044977;28;19930;-49
2022/06/11 00:42:35;;;;;;;;;;;;;;;25.35;44.62;98861.59;2042896;28;19973;-50
2022/06/11 00:43:39;;;;;;;;;;;;;;;25.35;44.28;98860.75;2043649;28;19934;-49
2022/06/11 00:44:41;;;;;;;;;;;;;;;25.34;44.04;98857.22;2041933;28;20408;-49
2022/06/11 00:45:43;;;;;;;;;;;;;;;25.35;43.87;98856.16;2043184;28;21037;-49
2022/06/11 00:46:54;;;;;;;;;;;;;;;25.37;44.67;98853.19;2042447;28;19930;-48
2022/06/11 00:47:57;;;;;;;;;;;;;;;25.36;44.66;98856.97;2044106;28;20025;-51
2022/06/11 00:49:00;;;;;;;;;;;;;;;25.34;44.17;98849.06;2042611;28;19926;-49
2022/06/11 00:50:03;;;;;;;;;;;;;;;25.35;44.02;98855.31;2041037;28;21736;-49
2022/06/11 00:51:11;;;;;;;;;;;;;;;25.34;43.62;98853.69;2043634;28;19926;-51
2022/06/11 00:52:22;;;;;;;;;;;;;;;25.35;43.62;98855.31;2049216;28;19930;-53
2022/06/11 00:53:29;;;;;;;;;;;;;;;25.33;44.25;98852.84;2050595;28;20031;-49
2022/06/11 00:54:31;;;;;;;;;;;;;;;25.34;43.74;98854.50;2053946;28;19930;-50
2022/06/11 00:55:36;;;;;;;;;;;;;;;25.34;44.46;98853.69;2052374;28;20857;-48
2022/06/11 00:56:38;;;;;;;;;;;;;;;25.35;43.90;98856.16;2055226;28;20295;-51
2022/06/11 00:57:41;;;;;;;;;;;;;;;25.34;44.15;98848.25;2052344;28;19929;-51
2022/06/11 00:58:45;;;;;;;;;;;;;;;25.34;43.78;98851.78;2051851;28;20531;-52
2022/06/11 00:59:48;;;;;;;;;;;;;;;25.34;43.84;98848.25;2055193;28;19934;-50
2022/06/11 01:00:52;;;;;;;;;;;;;;;25.34;44.46;98853.69;2053414;28;19942;-52
2022/06/11 01:01:52;;;;;;;;;;;;;;;25.33;43.88;98852.03;2051517;28;20020;-49
2022/06/11 01:02:56;;;;;;;;;;;;;;;25.33;43.89;98857.47;2050223;28;19942;-50
2022/06/11 01:03:59;;;;;;;;;;;;;;;25.34;44.45;98848.25;2050540;28;20387;-53
2022/06/11 01:05:01;;;;;;;;;;;;;;;25.35;43.10;98847.16;2050634;28;19970;-49
2022/06/11 01:06:06;;;;;;;;;;;;;;;25.34;44.29;98854.50;2052763;28;19934;-50
2022/06/11 01:07:18;;;;;;;;;;;;;;;25.34;44.10;98848.25;2055865;28;20286;-50
2022/06/11 01:08:37;;;;;;;;;;;;;;;25.33;44.02;98846.59;2055276;28;19952;-51
2022/06/11 01:09:42;;;;;;;;;;;;;;;25.34;43.80;98853.69;2055820;28;20025;-50
2022/06/11 01:11:03;;;;;;;;;;;;;;;25.33;44.31;98854.75;2055367;28;20399;-55
2022/06/11 01:12:05;;;;;;;;;;;;;;;25.32;43.70;98848.47;2056703;28;20006;-51
2022/06/11 01:13:11;;;;;;;;;;;;;;;25.33;43.42;98846.59;2055745;28;20502;-51
2022/06/11 01:14:29;;;;;;;;;;;;;;;25.32;43.72;98845.75;2057941;28;20326;-54
2022/06/11 01:15:32;;;;;;;;;;;;;;;25.32;43.57;98840.31;2056435;28;21603;-53
2022/06/11 01:16:36;;;;;;;;;;;;;;;25.34;44.35;98840.09;2054923;28;19930;-52
2022/06/11 01:17:40;;;;;;;;;;;;;;;25.32;44.00;98844.94;2054984;28;19934;-51
2022/06/11 01:18:47;;;;;;;;;;;;;;;25.33;43.65;98841.19;2055993;28;20340;-52
2022/06/11 01:20:09;;;;;;;;;;;;;;;25.32;42.95;98839.50;2062013;28;19930;-52
2022/06/11 01:21:18;;;;;;;;;;;;;;;25.32;44.10;98844.94;2055798;28;19934;-51
2022/06/11 01:22:27;;;;;;;;;;;;;;;25.31;43.88;98835.97;2055361;28;19961;-53
2022/06/11 01:23:47;;;;;;;;;;;;;;;25.31;44.25;98837.88;2056865;28;19930;-52
2022/06/11 01:24:55;;;;;;;;;;;;;;;25.31;44.16;98832.44;2055279;28;19926;-51
2022/06/11 01:26:05;;;;;;;;;;;;;;;25.31;44.17;98840.59;2058670;28;19933;-51
2022/06/11 01:27:18;;;;;;;;;;;;;;;25.30;44.08;98837.06;2057408;28;19933;-55
2022/06/11 01:28:30;;;;;;;;;;;;;;;25.31;44.55;98837.88;2055900;28;20853;-54
2022/06/11 01:29:40;;;;;;;;;;;;;;;25.31;44.49;98835.16;2055987;28;19926;-49
2022/06/11 01:30:44;;;;;;;;;;;;;;;25.29;44.12;98838.09;2054615;28;19926;-53
2022/06/11 01:31:49;;;;;;;;;;;;;;;25.30;43.83;98842.50;2053365;28;19973;-51
2022/06/11 01:32:59;;;;;;;;;;;;;;;25.30;43.80;98836.25;2056206;28;20684;-51
2022/06/11 01:34:04;;;;;;;;;;;;;;;25.29;43.73;98843.53;2057735;28;19930;-54
2022/06/11 01:35:11;;;;;;;;;;;;;;;25.29;44.10;98840.00;2056103;28;19938;-48
2022/06/11 01:36:14;;;;;;;;;;;;;;;25.30;44.25;98841.66;2054614;28;19934;-52
2022/06/11 01:37:19;;;;;;;;;;;;;;;25.29;44.32;98843.53;2055335;28;20518;-52
2022/06/11 01:38:22;;;;;;;;;;;;;;;25.29;43.82;98848.16;2060554;28;19930;-52
2022/06/11 01:39:26;;;;;;;;;;;;;;;25.28;44.13;98846.50;2055772;28;19932;-51
2022/06/11 01:40:32;;;;;;;;;;;;;;;25.28;43.29;98843.78;2056744;28;19926;-52
2022/06/11 01:41:37;;;;;;;;;;;;;;;25.28;43.72;98838.38;2054567;28;19930;-52
2022/06/11 01:42:41;;;;;;;;;;;;;;;25.27;43.50;98842.13;2054163;28;19933;-53
2022/06/11 01:43:45;;;;;;;;;;;;;;;25.28;44.32;98838.38;2055543;28;19995;-54
2022/06/11 01:44:58;;;;;;;;;;;;;;;25.27;43.59;98842.13;2055097;28;20861;-52
2022/06/11 01:46:01;;;;;;;;;;;;;;;25.28;43.82;98839.19;2054950;28;19932;-48
2022/06/11 01:47:03;;;;;;;;;;;;;;;25.28;44.36;98838.38;2058539;28;19926;-51
2022/06/11 01:48:07;;;;;;;;;;;;;;;25.27;44.21;98839.41;2057428;28;19926;-51
2022/06/11 01:49:27;;;;;;;;;;;;;;;25.26;43.82;98840.50;2057972;28;20607;-52
2022/06/11 01:50:32;;;;;;;;;;;;;;;25.27;44.06;98842.97;2081330;28;19925;-54
2022/06/11 01:51:37;;;;;;;;;;;;;;;25.27;43.99;98848.41;2046483;28;19934;-52
2022/06/11 01:52:59;;;;;;;;;;;;;;;25.27;43.89;98842.97;2048518;28;20376;-54
2022/06/11 01:54:20;;;;;;;;;;;;;;;25.26;43.86;98840.50;2054140;28;19960;-49
2022/06/11 01:55:28;;;;;;;;;;;;;;;25.26;43.76;98844.03;2059108;28;19952;-53
2022/06/11 01:56:37;;;;;;;;;;;;;;;25.26;43.72;98844.03;2057148;28;20021;-52
2022/06/11 01:57:45;;;;;;;;;;;;;;;25.27;43.84;98844.84;2055378;28;19925;-50
2022/06/11 01:58:54;;;;;;;;;;;;;;;25.25;43.88;98839.66;2057086;28;19925;-48
2022/06/11 02:00:07;;;;;;;;;;;;;;;25.25;43.99;98838.84;2054735;28;20383;-52
2022/06/11 02:01:14;;;;;;;;;;;;;;;25.26;44.21;98837.78;2055794;28;20012;-51
2022/06/11 02:02:22;;;;;;;;;;;;;;;25.26;43.85;98843.19;2055226;28;19926;-51
2022/06/11 02:03:28;;;;;;;;;;;;;;;25.26;43.50;98840.50;2055428;28;19926;-54
2022/06/11 02:04:37;;;;;;;;;;;;;;;25.24;42.75;98842.63;2057333;28;19926;-54
2022/06/11 02:05:49;;;;;;;;;;;;;;;25.24;43.02;98848.88;2056984;28;19938;-51
2022/06/11 02:06:55;;;;;;;;;;;;;;;25.24;43.41;98848.88;2053351;28;19937;-49
2022/06/11 02:08:03;;;;;;;;;;;;;;;25.25;43.09;98852.44;2047696;28;19927;-52
2022/06/11 02:09:15;;;;;;;;;;;;;;;25.27;43.52;98852.97;2048595;28;19934;-49
2022/06/11 02:10:18;;;;;;;;;;;;;;;25.24;43.80;98845.31;2050760;28;19932;-52
2022/06/11 02:11:23;;;;;;;;;;;;;;;25.24;43.32;98846.19;2047751;28;19934;-50
2022/06/11 02:12:28;;;;;;;;;;;;;;;25.25;43.58;98850.53;2048339;28;20549;-50
2022/06/11 02:13:32;;;;;;;;;;;;;;;25.23;44.00;98846.41;2046378;28;19926;-52
2022/06/11 02:14:37;;;;;;;;;;;;;;;25.23;43.26;98849.13;2049946;28;20590;-50
2022/06/11 02:15:41;;;;;;;;;;;;;;;25.23;43.70;98855.38;2049542;28;19971;-50
2022/06/11 02:16:46;;;;;;;;;;;;;;;25.25;43.99;98857.84;2048259;28;19933;-49
2022/06/11 02:17:48;;;;;;;;;;;;;;;25.24;43.69;98853.47;2048360;28;19930;-50
2022/06/11 02:18:54;;;;;;;;;;;;;;;25.25;43.69;98855.13;2047626;28;19976;-48
2022/06/11 02:19:58;;;;;;;;;;;;;;;25.24;43.23;98851.59;2049208;28;19927;-52
2022/06/11 02:21:02;;;;;;;;;;;;;;;25.24;43.91;98853.47;2049072;28;21206;-53
2022/06/11 02:22:07;;;;;;;;;;;;;;;25.25;43.04;98855.13;2048048;28;20545;-50
2022/06/11 02:23:11;;;;;;;;;;;;;;;25.23;42.96;98859.97;2048587;28;19927;-54
2022/06/11 02:24:14;;;;;;;;;;;;;;;25.22;43.98;98861.88;2046415;28;19948;-51
2022/06/11 02:25:16;;;;;;;;;;;;;;;25.22;43.26;98858.34;2046864;28;19930;-48
2022/06/11 02:26:20;;;;;;;;;;;;;;;25.21;44.13;98857.50;2056016;28;19987;-53
2022/06/11 02:27:23;;;;;;;;;;;;;;;25.22;43.40;98856.44;2058402;28;20009;-52
2022/06/11 02:28:26;;;;;;;;;;;;;;;25.23;43.64;98857.25;2057198;28;19941;-52
2022/06/11 02:29:27;;;;;;;;;;;;;;;25.23;44.20;98866.22;2059256;28;19953;-53
2022/06/11 02:30:31;;;;;;;;;;;;;;;25.22;43.98;98855.63;2056454;28;19926;-51
2022/06/11 02:31:33;;;;;;;;;;;;;;;25.22;43.63;98867.31;2057045;28;19927;-52
2022/06/11 02:32:35;;;;;;;;;;;;;;;25.21;43.59;98862.09;2053191;28;20367;-52
2022/06/11 02:33:36;;;;;;;;;;;;;;;25.23;44.21;98865.41;2054645;28;19977;-49
2022/06/11 02:34:38;;;;;;;;;;;;;;;25.22;44.00;98866.47;2055306;28;19940;-50
2022/06/11 02:35:54;;;;;;;;;;;;;;;25.21;44.09;98871.06;2055636;28;19937;-51
2022/06/11 02:36:58;;;;;;;;;;;;;;;25.22;42.93;98869.19;2054914;28;19939;-50
2022/06/11 02:38:00;;;;;;;;;;;;;;;25.22;43.92;98869.19;2051511;28;19952;-50
2022/06/11 02:39:02;;;;;;;;;;;;;;;25.22;43.76;98867.31;2052502;28;19934;-52
2022/06/11 02:40:06;;;;;;;;;;;;;;;25.23;43.55;98873.56;2053684;28;19979;-51
2022/06/11 02:41:09;;;;;;;;;;;;;;;25.25;43.02;98871.44;2055249;28;19930;-48
2022/06/11 02:42:13;;;;;;;;;;;;;;;25.23;42.92;98868.94;2050018;28;19934;-52
2022/06/11 02:43:14;;;;;;;;;;;;;;;25.23;44.28;98871.66;2049237;28;19930;-47
2022/06/11 02:44:16;;;;;;;;;;;;;;;25.23;43.19;98873.56;2053204;28;20013;-50
2022/06/11 02:45:17;;;;;;;;;;;;;;;25.22;43.96;98871.91;2052916;28;20669;-52
2022/06/11 02:47:38;;;;;;;;;;;;;;;25.22;43.83;98870.00;2050666;28;19938;-50
2022/06/11 02:48:38;;;;;;;;;;;;;;;25.20;44.11;98866.72;2049388;28;19926;-51
2022/06/11 02:49:40;;;;;;;;;;;;;;;25.21;43.96;98865.63;2056142;28;20141;-51
2022/06/11 02:50:42;;;;;;;;;;;;;;;25.21;43.73;98870.25;2056857;28;19956;-51
2022/06/11 02:51:44;;;;;;;;;;;;;;;25.20;43.19;98864.00;2057466;28;19926;-49
2022/06/11 02:52:47;;;;;;;;;;;;;;;25.22;44.32;98871.91;2055609;28;19972;-53
2022/06/11 02:53:48;;;;;;;;;;;;;;;25.21;44.13;98864.81;2055463;28;19926;-49
2022/06/11 02:54:50;;;;;;;;;;;;;;;25.19;44.04;98876.75;2056898;28;19926;-54
2022/06/11 02:55:52;;;;;;;;;;;;;;;25.19;43.38;98874.03;2057121;28;20093;-52
2022/06/11 02:56:54;;;;;;;;;;;;;;;25.18;43.15;98872.41;2055016;28;20390;-54
2022/06/11 02:57:56;;;;;;;;;;;;;;;25.19;43.67;98870.50;2051774;28;19934;-52
2022/06/11 02:58:57;;;;;;;;;;;;;;;25.17;43.26;98868.00;2048365;28;20406;-52
2022/06/11 02:59:59;;;;;;;;;;;;;;;25.19;43.73;98875.94;2050197;28;19926;-49
2022/06/11 03:00:59;;;;;;;;;;;;;;;25.19;43.18;98873.22;2055489;28;19926;-51
2022/06/11 03:02:01;;;;;;;;;;;;;;;25.20;42.36;98872.13;2055696;28;19927;-51
2022/06/11 03:03:02;;;;;;;;;;;;;;;25.21;43.01;98871.06;2056147;28;19930;-50
2022/06/11 03:04:04;;;;;;;;;;;;;;;25.18;43.81;98866.97;2060843;28;19930;-50
2022/06/11 03:05:04;;;;;;;;;;;;;;;25.19;43.96;98874.03;2058711;28;20300;-51
2022/06/11 03:06:06;;;;;;;;;;;;;;;25.19;43.55;98874.03;2059727;28;19968;-53
2022/06/11 03:07:08;;;;;;;;;;;;;;;25.19;43.92;98874.03;2054651;28;19926;-50
2022/06/11 03:08:11;;;;;;;;;;;;;;;25.19;43.03;98875.94;2056374;28;20334;-50
2022/06/11 03:09:13;;;;;;;;;;;;;;;25.17;43.46;98881.59;2055367;28;19937;-52
2022/06/11 03:10:16;;;;;;;;;;;;;;;25.18;42.91;98880.53;2056946;28;19980;-51
2022/06/11 03:11:17;;;;;;;;;;;;;;;25.16;43.98;98874.53;2055785;28;19929;-51
2022/06/11 03:12:18;;;;;;;;;;;;;;;25.17;43.15;98878.88;2057590;28;20710;-53
2022/06/11 03:13:19;;;;;;;;;;;;;;;25.14;43.20;98871.22;2056302;28;19927;-52
2022/06/11 03:14:21;;;;;;;;;;;;;;;25.17;43.86;98875.34;2054733;28;19958;-50
2022/06/11 03:15:24;;;;;;;;;;;;;;;25.16;42.64;98870.97;2054370;28;19941;-53
2022/06/11 03:16:24;;;;;;;;;;;;;;;25.15;42.88;98872.84;2054748;28;19926;-50
2022/06/11 03:17:27;;;;;;;;;;;;;;;25.15;43.23;98878.28;2057183;28;19926;-50
2022/06/11 03:18:27;;;;;;;;;;;;;;;25.14;43.43;98876.63;2056268;28;20021;-54
2022/06/11 03:19:29;;;;;;;;;;;;;;;25.16;43.72;98874.53;2055436;28;19934;-54
2022/06/11 03:20:30;;;;;;;;;;;;;;;25.16;43.06;98876.41;2048769;28;19933;-54
2022/06/11 03:21:32;;;;;;;;;;;;;;;25.15;43.14;98880.19;2050249;28;20025;-49
2022/06/11 03:22:34;;;;;;;;;;;;;;;25.15;43.74;98878.28;2054965;28;19927;-50
2022/06/11 03:23:36;;;;;;;;;;;;;;;25.15;43.63;98878.28;2049501;28;20307;-48
2022/06/11 03:24:38;;;;;;;;;;;;;;;25.14;42.65;98882.06;2049960;28;19934;-49
2022/06/11 03:25:39;;;;;;;;;;;;;;;25.13;42.28;98880.41;2052817;28;20402;-49
2022/06/11 03:26:41;;;;;;;;;;;;;;;25.15;43.67;98878.28;2054211;28;19926;-54
2022/06/11 03:27:42;;;;;;;;;;;;;;;25.13;42.61;98877.69;2055453;28;19936;-51
2022/06/11 03:28:43;;;;;;;;;;;;;;;25.15;42.55;98894.56;2057897;28;20029;-51
2022/06/11 03:29:45;;;;;;;;;;;;;;;25.14;42.99;98879.34;2057944;28;19926;-50
2022/06/11 03:30:46;;;;;;;;;;;;;;;25.15;42.78;98883.72;2057939;28;19926;-50
2022/06/11 03:31:48;;;;;;;;;;;;;;;25.14;43.01;98887.50;2057567;28;20511;-52
2022/06/11 03:32:49;;;;;;;;;;;;;;;25.14;42.42;98882.06;2056835;28;19930;-54
2022/06/11 03:33:51;;;;;;;;;;;;;;;25.15;43.61;98882.88;2054318;28;19932;-49
2022/06/11 03:34:51;;;;;;;;;;;;;;;25.13;42.77;98880.41;2055706;28;19961;-52
2022/06/11 03:35:53;;;;;;;;;;;;;;;25.12;43.26;98878.72;2057297;28;19930;-50
2022/06/11 03:36:57;;;;;;;;;;;;;;;25.13;42.76;98880.41;2056023;28;20515;-54
2022/06/11 03:37:57;;;;;;;;;;;;;;;25.14;42.99;98883.94;2058490;28;19926;-53
2022/06/11 03:39:00;;;;;;;;;;;;;;;25.14;43.57;98887.50;2055753;28;19938;-51
2022/06/11 03:40:01;;;;;;;;;;;;;;;25.14;43.74;98883.94;2056190;28;19932;-49
2022/06/11 03:41:04;;;;;;;;;;;;;;;25.14;43.93;98882.06;2056523;28;20306;-53
2022/06/11 03:42:05;;;;;;;;;;;;;;;25.15;43.21;98878.28;2057079;28;19938;-51
2022/06/11 03:43:07;;;;;;;;;;;;;;;25.13;43.10;98877.69;2059549;28;20468;-51
2022/06/11 03:44:07;;;;;;;;;;;;;;;25.14;42.90;98881.22;2056517;28;19937;-53
2022/06/11 03:45:09;;;;;;;;;;;;;;;25.13;42.69;98879.56;2056363;28;19933;-50
2022/06/11 03:46:10;;;;;;;;;;;;;;;25.12;43.58;98886.88;2058300;28;20482;-50
2022/06/11 03:47:12;;;;;;;;;;;;;;;25.12;42.84;98886.06;2056745;28;19937;-48
2022/06/11 03:48:12;;;;;;;;;;;;;;;25.11;43.26;98882.53;2059452;28;20999;-50
2022/06/11 03:49:14;;;;;;;;;;;;;;;25.12;43.62;98892.31;2059378;28;19930;-49
2022/06/11 03:50:16;;;;;;;;;;;;;;;25.11;43.87;98882.53;2057459;28;19926;-51
2022/06/11 03:51:18;;;;;;;;;;;;;;;25.12;43.86;98889.59;2057599;28;20040;-54
2022/06/11 03:52:18;;;;;;;;;;;;;;;25.11;43.47;98893.38;2058066;28;19926;-47
2022/06/11 03:53:20;;;;;;;;;;;;;;;25.10;43.94;98889.03;2055462;28;20461;-49
2022/06/11 03:54:22;;;;;;;;;;;;;;;25.11;43.70;98887.94;2055462;28;19930;-51
2022/06/11 03:55:24;;;;;;;;;;;;;;;25.11;43.40;98893.38;2056575;28;19937;-51
2022/06/11 03:56:25;;;;;;;;;;;;;;;25.10;42.59;98896.31;2055050;28;19934;-47
2022/06/11 03:57:28;;;;;;;;;;;;;;;25.10;43.31;98889.03;2058161;28;20295;-50
2022/06/11 03:58:28;;;;;;;;;;;;;;;25.11;42.95;98896.09;2056746;28;20554;-50
2022/06/11 03:59:30;;;;;;;;;;;;;;;25.11;43.55;98896.09;2057161;28;19942;-50
2022/06/11 04:01:52;;;;;;;;;;;;;;;25.09;43.58;98906.34;2056780;28;19927;-52
2022/06/11 04:02:53;;;;;;;;;;;;;;;25.10;42.92;98902.59;2055277;28;20036;-52
2022/06/11 04:03:56;;;;;;;;;;;;;;;25.09;42.65;98905.53;2057404;28;20327;-50
2022/06/11 04:04:57;;;;;;;;;;;;;;;25.11;43.88;98911.56;2055389;28;19930;-48
2022/06/11 04:05:58;;;;;;;;;;;;;;;25.09;43.56;98903.63;2056388;28;19926;-52
2022/06/11 04:07:00;;;;;;;;;;;;;;;25.11;43.22;98904.22;2056098;28;20330;-54
2022/06/11 04:08:01;;;;;;;;;;;;;;;25.12;43.08;98916.72;2056644;28;19958;-54
2022/06/11 04:09:04;;;;;;;;;;;;;;;25.11;42.82;98908.84;2055505;28;19930;-50
2022/06/11 04:10:09;;;;;;;;;;;;;;;25.10;42.79;98908.03;2059253;28;19933;-54
2022/06/11 04:11:11;;;;;;;;;;;;;;;25.08;43.19;98910.16;2057021;28;20399;-53
2022/06/11 04:12:15;;;;;;;;;;;;;;;25.09;43.45;98909.06;2056546;28;19941;-50
2022/06/11 04:13:17;;;;;;;;;;;;;;;25.09;43.20;98911.78;2055801;28;20024;-52
2022/06/11 04:14:18;;;;;;;;;;;;;;;25.11;42.94;98908.84;2062488;28;19926;-53
2022/06/11 04:15:19;;;;;;;;;;;;;;;25.12;43.72;98910.47;2056979;28;19932;-53
2022/06/11 04:16:23;;;;;;;;;;;;;;;25.11;43.68;98904.22;2057222;28;19949;-51
2022/06/11 04:17:26;;;;;;;;;;;;;;;25.09;44.03;98917.22;2056695;28;19933;-51
2022/06/11 04:18:30;;;;;;;;;;;;;;;25.06;43.19;98912.25;2056014;28;20459;-54
2022/06/11 04:19:34;;;;;;;;;;;;;;;25.06;43.55;98920.41;2056810;28;20314;-50
2022/06/11 04:20:35;;;;;;;;;;;;;;;25.08;43.82;98914.75;2056530;28;20777;-48
2022/06/11 04:21:37;;;;;;;;;;;;;;;25.08;43.64;98921.00;2050802;28;19965;-51
2022/06/11 04:22:37;;;;;;;;;;;;;;;25.07;43.14;98918.50;2056001;28;20418;-50
2022/06/11 04:23:41;;;;;;;;;;;;;;;25.07;43.21;98913.91;2056024;28;19969;-53
2022/06/11 04:24:42;;;;;;;;;;;;;;;25.07;43.32;98916.63;2056449;28;19934;-51
2022/06/11 04:25:45;;;;;;;;;;;;;;;25.05;42.71;98913.34;2056301;28;19930;-51
2022/06/11 04:26:47;;;;;;;;;;;;;;;25.06;43.34;98922.31;2055546;28;19933;-49
2022/06/11 04:27:53;;;;;;;;;;;;;;;25.06;43.03;98927.72;2054384;28;19934;-49
2022/06/11 04:28:55;;;;;;;;;;;;;;;25.06;43.71;98922.31;2055308;28;20500;-48
2022/06/11 04:29:58;;;;;;;;;;;;;;;25.04;42.55;98925.25;2053748;28;20383;-50
2022/06/11 04:30:59;;;;;;;;;;;;;;;25.05;43.75;98926.91;2057818;28;20375;-50
2022/06/11 04:32:02;;;;;;;;;;;;;;;25.06;43.50;98925.84;2056564;28;19942;-50
2022/06/11 04:33:03;;;;;;;;;;;;;;;25.06;43.86;98928.56;2054659;28;19933;-54
2022/06/11 04:34:05;;;;;;;;;;;;;;;25.07;42.77;98927.47;2057456;28;19930;-48
2022/06/11 04:35:06;;;;;;;;;;;;;;;25.07;44.10;98927.47;2054012;28;19945;-51
2022/06/11 04:36:08;;;;;;;;;;;;;;;25.08;43.26;98925.59;2046501;28;19952;-54
2022/06/11 04:37:13;;;;;;;;;;;;;;;25.08;43.21;98923.72;2045406;28;19926;-52
2022/06/11 04:38:14;;;;;;;;;;;;;;;25.07;42.94;98930.19;2041864;28;19941;-48
2022/06/11 04:39:16;;;;;;;;;;;;;;;25.07;43.60;98935.63;2042361;28;19926;-51
2022/06/11 04:40:18;;;;;;;;;;;;;;;25.08;43.65;98931.84;2038517;28;19934;-51
2022/06/11 04:41:21;;;;;;;;;;;;;;;25.08;43.58;98931.84;2035641;28;20399;-49
2022/06/11 04:42:23;;;;;;;;;;;;;;;25.08;43.87;98936.47;2038717;28;19930;-48
2022/06/11 04:43:24;;;;;;;;;;;;;;;25.09;43.92;98938.91;2041254;28;19965;-48
2022/06/11 04:44:26;;;;;;;;;;;;;;;25.09;44.14;98941.63;2041452;28;20457;-46
2022/06/11 04:45:27;;;;;;;;;;;;;;;25.09;44.03;98938.91;2040238;28;19930;-48
2022/06/11 04:46:29;;;;;;;;;;;;;;;25.10;43.93;98940.59;2041052;28;20018;-50
2022/06/11 04:47:29;;;;;;;;;;;;;;;25.10;44.25;98937.88;2045540;28;19931;-48
2022/06/11 04:48:31;;;;;;;;;;;;;;;25.11;44.43;98935.97;2042013;28;19996;-49
2022/06/11 04:49:32;;;;;;;;;;;;;;;25.10;44.21;98934.31;2044077;28;19935;-47
2022/06/11 04:50:35;;;;;;;;;;;;;;;25.09;44.52;98932.69;2046279;28;19946;-48
2022/06/11 04:51:36;;;;;;;;;;;;;;;25.09;44.66;98936.22;2040358;28;19953;-48
2022/06/11 04:52:39;;;;;;;;;;;;;;;25.08;44.39;98937.28;2040554;28;20050;-50
2022/06/11 04:53:39;;;;;;;;;;;;;;;25.10;44.48;98929.75;2044598;28;19926;-50
2022/06/11 04:54:41;;;;;;;;;;;;;;;25.08;44.79;98940.00;2039946;28;20048;-49
2022/06/11 04:55:42;;;;;;;;;;;;;;;25.09;44.63;98946.25;2040245;28;19930;-52
2022/06/11 04:56:45;;;;;;;;;;;;;;;25.08;44.55;98936.47;2036778;28;19934;-49
2022/06/11 04:57:46;;;;;;;;;;;;;;;25.09;44.86;98938.09;2038224;28;19941;-51
2022/06/11 04:58:48;;;;;;;;;;;;;;;25.09;44.82;98941.63;2039373;28;19973;-48
2022/06/11 04:59:49;;;;;;;;;;;;;;;25.09;44.67;98938.09;2039100;28;19934;-50
2022/06/11 05:00:51;;;;;;;;;;;;;;;25.08;44.72;98942.72;2036175;28;19936;-49
2022/06/11 05:01:51;;;;;;;;;;;;;;;25.10;44.99;98937.88;2036209;28;19931;-47
2022/06/11 05:02:53;;;;;;;;;;;;;;;25.10;44.74;98937.03;2045135;28;19934;-50
2022/06/11 05:03:53;;;;;;;;;;;;;;;25.09;44.62;98938.09;2041399;28;20720;-48
2022/06/11 05:04:55;;;;;;;;;;;;;;;25.09;44.94;98938.91;2043114;28;19930;-48
2022/06/11 05:05:56;;;;;;;;;;;;;;;25.12;44.71;98946.59;2042387;28;20330;-50
2022/06/11 05:06:58;;;;;;;;;;;;;;;25.11;44.93;98947.66;2043827;28;19938;-49
2022/06/11 05:08:00;;;;;;;;;;;;;;;25.12;44.74;98943.88;2042213;28;20296;-49
2022/06/11 05:09:02;;;;;;;;;;;;;;;25.13;45.01;98950.97;2042920;28;19973;-52
2022/06/11 05:10:04;;;;;;;;;;;;;;;25.12;44.80;98949.31;2046423;28;20613;-53
2022/06/11 05:11:06;;;;;;;;;;;;;;;25.11;45.03;98946.84;2043503;28;19957;-49
2022/06/11 05:12:09;;;;;;;;;;;;;;;25.11;45.01;98944.94;2043859;28;20029;-49
2022/06/11 05:13:12;;;;;;;;;;;;;;;25.11;45.11;98947.66;2047091;28;19933;-47
2022/06/11 05:14:12;;;;;;;;;;;;;;;25.12;44.79;98951.19;2041955;28;19934;-49
2022/06/11 05:15:14;;;;;;;;;;;;;;;25.12;45.03;98954.72;2041653;28;19973;-54
2022/06/11 05:16:16;;;;;;;;;;;;;;;25.11;45.00;98950.38;2041396;28;19927;-48
2022/06/11 05:17:18;;;;;;;;;;;;;;;25.13;44.92;98950.97;2041009;28;19937;-53
2022/06/11 05:18:20;;;;;;;;;;;;;;;25.11;45.25;98955.81;2049853;28;20309;-51
2022/06/11 05:19:22;;;;;;;;;;;;;;;25.13;45.14;98952.84;2046766;28;20038;-50
2022/06/11 05:20:23;;;;;;;;;;;;;;;25.14;44.83;98958.06;2047880;28;20993;-50
2022/06/11 05:21:24;;;;;;;;;;;;;;;25.14;45.09;98959.94;2043988;28;20335;-49
2022/06/11 05:22:26;;;;;;;;;;;;;;;25.14;45.24;98960.78;2050856;28;19930;-51
2022/06/11 05:23:27;;;;;;;;;;;;;;;25.15;45.00;98951.56;2049003;28;19933;-50
2022/06/11 05:24:29;;;;;;;;;;;;;;;25.12;45.34;98957.44;2053337;28;20346;-51
2022/06/11 05:25:30;;;;;;;;;;;;;;;25.12;45.12;98962.88;2049183;28;19989;-51
2022/06/11 05:26:34;;;;;;;;;;;;;;;25.12;45.41;98962.88;2049681;28;20466;-50
2022/06/11 05:27:38;;;;;;;;;;;;;;;25.11;45.12;98963.94;2045918;28;19930;-52
2022/06/11 05:28:39;;;;;;;;;;;;;;;25.11;45.23;98968.56;2049786;28;19926;-52
2022/06/11 05:29:44;;;;;;;;;;;;;;;25.10;45.06;98965.03;2046398;28;19937;-51
2022/06/11 05:30:46;;;;;;;;;;;;;;;25.10;45.11;98966.88;2048175;28;20020;-50
2022/06/11 05:31:46;;;;;;;;;;;;;;;25.09;45.27;98971.50;2046388;28;20159;-54
2022/06/11 05:32:48;;;;;;;;;;;;;;;25.09;45.14;98968.78;2053945;28;19926;-51